Thunder radar more information blitzortung!


Radar de pluja more information rain snow radar


Visita la nostra xarxa de llocs de meteo:

Template documentation
and downloads

And another site



No particular awareness of the weather is required.    There are no Weather-warnings

Pagina Historial Weather Underground text

Diari Resum Octubre 12, 2017 Unitats:  Imperial    Mètric   Tant
« Previous Dia
SegĂźent Dia »
Diari Setmana Mensual Anual Personalitzada
  Maxima: Minima: Media:
Temperatura: 81.1 °F 56.8 °F 69.8 °F
Punt de rosada: 63.7 °F 54 °F 60.4 °F
Humitat: 93 % 51 % 74 %
Wind Speed: 9.7 mph 0 mph 3.5 mph
RĂ fegues de vent: 9.7 mph - -
Vent:- - SSW
Pression baro: 30.3 in 30.2 in -
Precipitacions: 0 in    
Historical Graphs
 
 
Dades de taula per Octubre 12, 2017
Temps Temperatura Punt de rosada Pression baro Vent Wind Speed RĂ fegues de vent Humitat Rainfall Rate (Hourly)
00:00 59 °F 56.1 °F 30.2 in Calm   1 mph 90 % 0 in
00:02 65.1 °F 60.3 °F 30.2 in West 1.2 mph   84 % 0 in
00:07 65.1 °F 60.3 °F 30.2 in West 1.2 mph 1.4 mph 84 % 0 in
00:10 58.8 °F 55.9 °F 30.2 in Calm   1 mph 90 % 0 in
00:12 65.1 °F 60.4 °F 30.2 in West 1.6 mph 1.6 mph 85 % 0 in
00:20 58.5 °F 55.6 °F 30.2 in Calm   1 mph 90 % 0 in
00:30 58.3 °F 55.4 °F 30.2 in SW 2 mph 2 mph 90 % 0 in
00:40 57.9 °F 54.7 °F 30.2 in SW 2 mph 3 mph 89 % 0 in
00:50 57.6 °F 54.3 °F 30.2 in SW 1 mph 2 mph 89 % 0 in
01:00 57.4 °F 54.5 °F 30.2 in Calm   2 mph 90 % 0 in
01:10 57.4 °F 54.5 °F 30.2 in Calm   2 mph 90 % 0 in
01:20 57.4 °F 54.5 °F 30.2 in SW 2 mph 2 mph 90 % 0 in
01:30 57.4 °F 54.5 °F 30.2 in SW 1 mph 2 mph 90 % 0 in
01:40 57.4 °F 54.5 °F 30.2 in WSW 2 mph 2 mph 90 % 0 in
01:50 57.6 °F 54.7 °F 30.2 in WSW 1 mph 2 mph 90 % 0 in
02:00 57.4 °F 54.5 °F 30.3 in WSW 2 mph 2 mph 90 % 0 in
02:10 57 °F 54.1 °F 30.3 in SW 2 mph 2 mph 90 % 0 in
02:20 56.8 °F 54 °F 30.3 in WSW 1 mph 2 mph 90 % 0 in
02:30 57 °F 54.3 °F 30.3 in SW 1 mph 3 mph 91 % 0 in
02:50 57.6 °F 55.2 °F 30.3 in Calm   2 mph 92 % 0 in
03:00 57.4 °F 55 °F 30.3 in Calm   1 mph 92 % 0 in
03:10 57.4 °F 55 °F 30.3 in Calm     92 % 0 in
03:20 57.2 °F 54.9 °F 30.3 in Calm     92 % 0 in
03:30 57.4 °F 55 °F 30.3 in Calm     92 % 0 in
03:40 57.6 °F 55.6 °F 30.3 in Calm     93 % 0 in
03:50 57.7 °F 55.4 °F 30.3 in Calm     92 % 0 in
04:00 57.9 °F 55.9 °F 30.3 in Calm     93 % 0 in
04:10 58.8 °F 56.8 °F 30.3 in WSW 1 mph 1 mph 93 % 0 in
04:20 59.4 °F 57.4 °F 30.3 in WSW 1 mph 2 mph 93 % 0 in
04:30 59.9 °F 57.9 °F 30.3 in Calm   1 mph 93 % 0 in
04:40 60.8 °F 58.8 °F 30.3 in SW 2 mph 2 mph 93 % 0 in
04:50 61 °F 58.8 °F 30.3 in Calm   2 mph 93 % 0 in
05:00 61.5 °F 59.5 °F 30.3 in Calm     93 % 0 in
05:10 61.9 °F 59.7 °F 30.3 in South 1 mph 2 mph 93 % 0 in
05:20 62.2 °F 59.9 °F 30.3 in North 1 mph 2 mph 92 % 0 in
05:30 63 °F 60.3 °F 30.3 in NNW 1 mph 2 mph 91 % 0 in
05:40 63.3 °F 60.3 °F 30.3 in SSW 2 mph 3 mph 90 % 0 in
05:50 64.2 °F 60.6 °F 30.3 in NE 1 mph 2 mph 88 % 0 in
06:00 65.1 °F 60.8 °F 30.3 in Calm   1 mph 86 % 0 in
11:01 65.5 °F 61.2 °F 30.3 in NNW 1.2 mph   86 % 0 in
11:06 65.5 °F 60.8 °F 30.3 in NNE 1.4 mph 1.4 mph 85 % 0 in
11:11 65.7 °F 60.6 °F 30.3 in South 1.2 mph   84 % 0 in
11:16 66.2 °F 61 °F 30.3 in SW 2.3 mph 2.3 mph 83 % 0 in
11:21 66.4 °F 61.2 °F 30.3 in South 2.3 mph 2.3 mph 83 % 0 in
11:31 66.6 °F 61 °F 30.3 in ESE 1.2 mph 1.2 mph 82 % 0 in
11:36 67.1 °F 61.3 °F 30.3 in SE 1.6 mph 1.6 mph 82 % 0 in
11:41 67.8 °F 62.1 °F 30.3 in WNW 2.3 mph 2.3 mph 82 % 0 in
11:46 68 °F 61.9 °F 30.3 in NNE 2.3 mph 2.3 mph 81 % 0 in
11:47 68.2 °F 61.9 °F 30.3 in NNE 1.2 mph   80 % 0 in
11:57 68.5 °F 61.9 °F 30.3 in NNW 1.2 mph   79 % 0 in
12:02 69.3 °F 62.1 °F 30.3 in NE 1.2 mph   78 % 0 in
12:07 69.4 °F 61.9 °F 30.3 in SE 3.5 mph 3.5 mph 77 % 0 in
12:12 69.8 °F 61.9 °F 30.3 in ESE 2.3 mph 2.3 mph 76 % 0 in
12:17 71.1 °F 63.1 °F 30.3 in ESE 2.4 mph 2.4 mph 76 % 0 in
12:22 71.6 °F 63.3 °F 30.3 in East 2.2 mph 2.2 mph 75 % 0 in
12:27 72 °F 63.1 °F 30.3 in NNE 3.6 mph 3.6 mph 74 % 0 in
12:32 71.6 °F 62.1 °F 30.3 in ENE 3.5 mph 3.5 mph 72 % 0 in
12:37 72.1 °F 63 °F 30.3 in ENE 3.8 mph 3.8 mph 73 % 0 in
12:42 72.7 °F 63.5 °F 30.3 in ENE 3.6 mph 3.6 mph 73 % 0 in
12:44 72.5 °F 63 °F 30.3 in NNE 3.5 mph 3.5 mph 72 % 0 in
12:49 72.3 °F 62.8 °F 30.3 in NE 4.6 mph 4.6 mph 72 % 0 in
12:54 72.3 °F 62.8 °F 30.3 in WNW 1.2 mph 1.2 mph 72 % 0 in
12:59 72.9 °F 63.3 °F 30.3 in NW 2.3 mph 2.3 mph 72 % 0 in
13:04 73.6 °F 63.1 °F 30.3 in ESE 2.3 mph 2.3 mph 70 % 0 in
13:09 73.9 °F 63.1 °F 30.3 in SE 3.5 mph 3.5 mph 69 % 0 in
13:14 73.8 °F 62.1 °F 30.3 in SW 3.5 mph 3.5 mph 67 % 0 in
13:19 74.1 °F 63.3 °F 30.3 in NE 3.5 mph 3.5 mph 69 % 0 in
13:24 73.4 °F 61.9 °F 30.3 in SE 3.5 mph 3.5 mph 67 % 0 in
13:29 74.7 °F 63.3 °F 30.3 in ESE 4 mph 4 mph 68 % 0 in
13:34 73.9 °F 61.9 °F 30.3 in SE 5.6 mph 5.6 mph 66 % 0 in
13:39 73.9 °F 62.2 °F 30.3 in ENE 3.5 mph 3.5 mph 67 % 0 in
13:44 74.5 °F 63.1 °F 30.3 in WNW 2.3 mph 2.3 mph 68 % 0 in
13:49 75 °F 63.3 °F 30.3 in SW 2.3 mph 2.3 mph 67 % 0 in
13:54 75 °F 62.1 °F 30.3 in ESE 4.6 mph 4.6 mph 64 % 0 in
13:59 75.2 °F 62.2 °F 30.3 in ENE 5.8 mph 5.8 mph 64 % 0 in
14:04 76.1 °F 63.5 °F 30.3 in SSW 1.2 mph 1.4 mph 65 % 0 in
14:09 76.3 °F 63.7 °F 30.3 in SE 3.5 mph 3.5 mph 65 % 0 in
14:14 76.8 °F 63.7 °F 30.3 in SSW 6.9 mph 6.9 mph 64 % 0 in
14:19 77.7 °F 63.7 °F 30.3 in SW 4.6 mph 4.6 mph 62 % 0 in
14:24 78.1 °F 63.5 °F 30.3 in SW 5.8 mph 5.8 mph 61 % 0 in
14:29 78.6 °F 63.7 °F 30.3 in SSE 2.3 mph 2.3 mph 60 % 0 in
14:34 77.7 °F 62.2 °F 30.3 in South 5.8 mph 5.8 mph 59 % 0 in
14:39 78.1 °F 62.6 °F 30.3 in SSE 5.8 mph 5.8 mph 59 % 0 in
14:44 78.4 °F 63.3 °F 30.3 in WSW 6 mph 6.4 mph 60 % 0 in
14:49 78.1 °F 62.6 °F 30.3 in SE 6.9 mph 6.9 mph 59 % 0 in
14:54 78.3 °F 62.2 °F 30.3 in SW 5.8 mph 5.8 mph 58 % 0 in
14:59 78.4 °F 62.4 °F 30.3 in SSE 7.8 mph 7.8 mph 58 % 0 in
15:04 77.9 °F 61 °F 30.3 in North 3.5 mph 3.5 mph 56 % 0 in
15:09 78.6 °F 62.1 °F 30.3 in SW 4.6 mph 4.6 mph 57 % 0 in
15:19 79.2 °F 62.1 °F 30.3 in WSW 3.8 mph 3.8 mph 56 % 0 in
15:24 79.5 °F 62.4 °F 30.3 in SSW 7.6 mph 7.6 mph 56 % 0 in
15:29 79.5 °F 61.9 °F 30.3 in SW 4.6 mph 4.6 mph 55 % 0 in
15:34 79.7 °F 62.1 °F 30.3 in WSW 3.5 mph 3.5 mph 55 % 0 in
15:39 79.7 °F 62.1 °F 30.3 in SSW 3.5 mph 3.5 mph 55 % 0 in
15:44 79.7 °F 61.2 °F 30.2 in SSE 6.2 mph 6.2 mph 53 % 0 in
15:49 80.1 °F 62.4 °F 30.2 in SW 4 mph 4 mph 55 % 0 in
15:54 80.2 °F 62.6 °F 30.2 in West 4.6 mph 4.6 mph 55 % 0 in
15:59 80.2 °F 62.1 °F 30.2 in West 5.8 mph 5.8 mph 54 % 0 in
16:04 80.4 °F 62.2 °F 30.2 in South 5.8 mph 5.8 mph 54 % 0 in
16:09 81.1 °F 61.9 °F 30.2 in SW 7.8 mph 7.8 mph 52 % 0 in
16:14 80.4 °F 61.7 °F 30.2 in South 5.8 mph 5.8 mph 53 % 0 in
16:19 80.8 °F 61.5 °F 30.2 in SW 4.6 mph 4.6 mph 52 % 0 in
16:24 80.2 °F 61.5 °F 30.2 in SW 5.8 mph 5.8 mph 53 % 0 in
16:29 79.9 °F 60.6 °F 30.2 in SW 6.9 mph 6.9 mph 52 % 0 in
16:34 80.1 °F 60.8 °F 30.2 in SSW 2.3 mph 2.9 mph 52 % 0 in
16:39 80.6 °F 60.8 °F 30.2 in SSW 3.6 mph 3.6 mph 51 % 0 in
16:44 80.2 °F 61 °F 30.2 in SW 5.8 mph 5.8 mph 52 % 0 in
16:49 79.9 °F 60.6 °F 30.2 in South 5.8 mph 5.8 mph 52 % 0 in
16:54 80.1 °F 61.3 °F 30.2 in SW 4.6 mph 4.6 mph 53 % 0 in
16:59 80.2 °F 61.5 °F 30.2 in WSW 5.8 mph 5.8 mph 53 % 0 in
17:04 79.9 °F 61.2 °F 30.2 in WSW 5.8 mph 5.8 mph 53 % 0 in
17:09 78.6 °F 60.1 °F 30.2 in SW 9.2 mph 9.2 mph 53 % 0 in
17:19 78.3 °F 60.3 °F 30.2 in SSW 5.8 mph 5.8 mph 54 % 0 in
17:29 77.7 °F 60.3 °F 30.2 in SSW 6.9 mph 6.9 mph 55 % 0 in
17:34 77.2 °F 59.7 °F 30.2 in SW 7.8 mph 7.8 mph 55 % 0 in
17:39 77 °F 59.5 °F 30.2 in SW 7.4 mph 7.4 mph 55 % 0 in
17:44 76.5 °F 60.1 °F 30.2 in SSW 8.1 mph 8.1 mph 57 % 0 in
17:49 76.3 °F 59.9 °F 30.2 in SW 7.8 mph 7.8 mph 57 % 0 in
17:54 76.1 °F 60.3 °F 30.2 in SW 6.9 mph 6.9 mph 58 % 0 in
17:59 75.7 °F 59.9 °F 30.2 in WSW 6.9 mph 6.9 mph 58 % 0 in
18:04 75.9 °F 60.6 °F 30.2 in SSW 8.1 mph 8.1 mph 59 % 0 in
18:09 75.6 °F 60.3 °F 30.2 in SW 8.1 mph 8.1 mph 59 % 0 in
18:14 75 °F 60.3 °F 30.2 in West 5.8 mph 5.8 mph 60 % 0 in
18:19 74.8 °F 60.4 °F 30.2 in WSW 9.7 mph 9.7 mph 61 % 0 in
18:24 74.5 °F 60.1 °F 30.2 in SW 5.8 mph 5.8 mph 61 % 0 in
18:26 74.5 °F 60.1 °F 30.2 in SW 5.8 mph 5.8 mph 61 % 0 in
18:31 74.3 °F 60.4 °F 30.2 in WSW 6.9 mph 6.9 mph 62 % 0 in
18:36 73.9 °F 60.4 °F 30.2 in SW 6.9 mph 6.9 mph 63 % 0 in
18:41 73.8 °F 60.4 °F 30.2 in SW 8.1 mph 8.1 mph 63 % 0 in
18:46 73.4 °F 60.4 °F 30.2 in SSW 5.8 mph 5.9 mph 64 % 0 in
18:51 73 °F 60.1 °F 30.2 in SSE 4.6 mph 4.6 mph 64 % 0 in
18:56 72.7 °F 60.3 °F 30.2 in SSW 4.6 mph 4.6 mph 65 % 0 in
19:01 72.3 °F 59.9 °F 30.3 in WSW 4 mph 4 mph 65 % 0 in
19:06 72.1 °F 60.3 °F 30.3 in West 3.6 mph 3.6 mph 66 % 0 in
19:11 71.8 °F 59.7 °F 30.3 in SW 5.8 mph 5.8 mph 66 % 0 in
19:16 71.6 °F 60.1 °F 30.2 in SW 4.7 mph 4.7 mph 67 % 0 in
19:21 71.2 °F 60.1 °F 30.2 in SW 4.6 mph 4.6 mph 68 % 0 in
19:26 71.1 °F 60.4 °F 30.2 in SSW 9.2 mph 9.2 mph 69 % 0 in
19:31 70.7 °F 60.4 °F 30.3 in SW 5.8 mph 5.8 mph 70 % 0 in
19:36 70.5 °F 60.3 °F 30.3 in SW 5.8 mph 5.8 mph 70 % 0 in
19:41 70.3 °F 60.4 °F 30.3 in SW 6.9 mph 6.9 mph 71 % 0 in
19:46 70 °F 60.1 °F 30.2 in WSW 5.8 mph 5.8 mph 71 % 0 in
19:51 69.8 °F 60.4 °F 30.2 in SW 5.8 mph 5.8 mph 72 % 0 in
19:56 69.6 °F 60.6 °F 30.2 in SW 8.1 mph 8.1 mph 73 % 0 in
20:01 69.4 °F 60.4 °F 30.3 in SW 5.8 mph 5.8 mph 73 % 0 in
20:06 69.4 °F 60.8 °F 30.3 in SW 5.8 mph 5.8 mph 74 % 0 in
20:11 69.3 °F 60.6 °F 30.3 in SW 5.8 mph 5.8 mph 74 % 0 in
20:16 69.1 °F 60.8 °F 30.3 in West 5.8 mph 5.8 mph 75 % 0 in
20:21 69.1 °F 60.8 °F 30.3 in SSW 4.6 mph 4.6 mph 75 % 0 in
20:26 68.9 °F 61 °F 30.3 in West 4.9 mph 4.9 mph 76 % 0 in
20:31 68.7 °F 60.8 °F 30.3 in WSW 5.8 mph 5.8 mph 76 % 0 in
20:36 68.7 °F 61.2 °F 30.3 in West 2.6 mph 2.6 mph 77 % 0 in
20:41 68.5 °F 61 °F 30.3 in WSW 3.5 mph 3.5 mph 77 % 0 in
20:46 68.4 °F 61 °F 30.3 in WSW 3.5 mph 3.5 mph 77 % 0 in
20:51 68.4 °F 61 °F 30.3 in SW 4.6 mph 4.6 mph 77 % 0 in
20:56 68.2 °F 61.2 °F 30.3 in SW 4.6 mph 4.6 mph 78 % 0 in
21:01 68.2 °F 61.2 °F 30.3 in SW 3.5 mph 3.5 mph 78 % 0 in
21:06 68 °F 61 °F 30.3 in WSW 4.6 mph 4.6 mph 78 % 0 in
21:11 68 °F 61 °F 30.3 in SW 4.6 mph 4.6 mph 78 % 0 in
21:16 67.8 °F 61.2 °F 30.3 in SSW 3.5 mph 3.5 mph 79 % 0 in
21:21 67.6 °F 61 °F 30.3 in WSW 3.5 mph 3.5 mph 79 % 0 in
21:26 67.6 °F 61 °F 30.3 in SW 2.4 mph 2.4 mph 79 % 0 in
21:31 67.5 °F 61.2 °F 30.3 in SW 3.5 mph 3.5 mph 80 % 0 in
21:36 67.5 °F 61.2 °F 30.3 in SW 3.1 mph 3.1 mph 80 % 0 in
21:41 67.5 °F 61.2 °F 30.3 in West 3.5 mph 3.5 mph 80 % 0 in
21:46 67.3 °F 61.2 °F 30.3 in WSW 2.3 mph 2.3 mph 81 % 0 in
21:51 67.3 °F 61.2 °F 30.3 in SW 1.2 mph   81 % 0 in
21:56 67.1 °F 61.3 °F 30.3 in West 1.2 mph 1.2 mph 82 % 0 in
22:01 67.1 °F 61.3 °F 30.3 in SW 2 mph   82 % 0 in
22:06 67.1 °F 61.3 °F 30.3 in WSW 1.2 mph   82 % 0 in
22:11 66.9 °F 61.2 °F 30.3 in WSW 1.2 mph 1.2 mph 82 % 0 in
22:16 66.9 °F 61.2 °F 30.3 in West 2.3 mph 2.3 mph 82 % 0 in
22:21 66.9 °F 61.2 °F 30.3 in West 1.2 mph 1.2 mph 82 % 0 in
22:26 66.7 °F 61.3 °F 30.3 in West 2.3 mph 2.3 mph 83 % 0 in
22:31 66.7 °F 61.3 °F 30.3 in WSW 1.2 mph 1.2 mph 83 % 0 in
22:36 66.6 °F 61.2 °F 30.3 in WSW 1.2 mph 1.2 mph 83 % 0 in
22:41 66.6 °F 61.2 °F 30.3 in WSW 2.3 mph 2.3 mph 83 % 0 in
22:46 66.6 °F 61.2 °F 30.3 in WSW 1.6 mph   83 % 0 in
22:51 66.4 °F 61.2 °F 30.3 in WSW 2.3 mph 2.3 mph 83 % 0 in
22:56 66.4 °F 61.3 °F 30.3 in SW 1.2 mph   84 % 0 in
23:01 66.2 °F 61.2 °F 30.3 in Calm     84 % 0 in
23:06 66.2 °F 61.2 °F 30.3 in WSW 1.2 mph 1.2 mph 84 % 0 in
23:11 66.4 °F 61.3 °F 30.3 in West 1.2 mph 1.4 mph 84 % 0 in
23:16 66.2 °F 61.2 °F 30.3 in West 2.3 mph 2.3 mph 84 % 0 in
23:21 66.2 °F 61.2 °F 30.3 in WSW 2.3 mph 2.3 mph 84 % 0 in
23:26 66.2 °F 61.2 °F 30.3 in WSW 2.3 mph 2.3 mph 84 % 0 in
23:31 66.2 °F 61.2 °F 30.3 in West 2.3 mph 2.3 mph 84 % 0 in
23:36 66.2 °F 61.2 °F 30.3 in SW 2.3 mph 2.3 mph 84 % 0 in
23:41 66.2 °F 61.5 °F 30.3 in West 1.2 mph 1.4 mph 85 % 0 in
23:46 66.2 °F 61.5 °F 30.3 in West 3.5 mph 3.5 mph 85 % 0 in
23:51 66.2 °F 61.5 °F 30.3 in West 2.3 mph 2.3 mph 85 % 0 in
23:56 66.2 °F 61.5 °F 30.3 in WSW 4.6 mph 4.6 mph 85 % 0 in
Meteo Sesrovires
Elogis d' Weather Underground - 3.5 mb

Guio original per  Jim McMurry - jmcmurry@mwt.net Adaptat per a la plantilla per  Wim van der Kuil - Leuven-Template.eu

Trobareu la nostra informacio del temps tambe a:

Weather Underground

AWEKAS